This is the latest recevied weather packets stored in our database for station/object OE-11140. If no packets are shown the sender has not sent any weather packets the latest 10 day(s).
| Time | Temp. | Humidity | Pressure | Rain* | Wind** | Luminosity | Snow |
|---|---|---|---|---|---|---|---|
| 1787657715 | 18.89° C | 75% | 1011.6 hPa | 0 mm | - | 258 W/m² | - |
| 1787657115 | 18.89° C | 76% | 1011.5 hPa | 0 mm | - | 292 W/m² | - |
| 1787654489 | 19.44° C | 75% | 1011.1 hPa | 0 mm | - | 272 W/m² | - |
| 1787654112 | 19.44° C | 73% | 1010.9 hPa | 0 mm | - | 252 W/m² | - |
| 1787652315 | 20° C | 73% | 1010.5 hPa | 0 mm | - | 212 W/m² | - |
| 1787651715 | 19.44° C | 72% | 1010.2 hPa | 0 mm | - | 192 W/m² | - |
| 1787650889 | 19.44° C | 70% | 1010.1 hPa | 0 mm | - | 205 W/m² | - |
| 1787650516 | 20° C | 70% | 1010 hPa | 0 mm | - | 205 W/m² | - |
| 1787649916 | 19.44° C | 70% | 1010 hPa | 0 mm | - | 232 W/m² | - |
| 1787649088 | 20° C | 68% | 1010 hPa | 0 mm | - | 292 W/m² | - |
| 1787648716 | 19.44° C | 70% | 1010 hPa | 0 mm | - | 285 W/m² | - |
| 1787648116 | 19.44° C | 68% | 1010 hPa | 0 mm | - | 272 W/m² | - |
| 1787647288 | 19.44° C | 62% | 1009.8 hPa | 0 mm | - | 199 W/m² | - |
| 1787646916 | 19.44° C | 63% | 1009.5 hPa | 0 mm | - | 166 W/m² | - |
| 1787646316 | 20° C | 61% | 1009.4 hPa | 0 mm | - | 159 W/m² | - |
| 1787645488 | 20° C | 61% | 1009 hPa | 0 mm | - | 146 W/m² | - |
| 1787645116 | 19.44° C | 61% | 1009 hPa | 0 mm | - | 126 W/m² | - |
| 1787644516 | 18.33° C | 69% | 1009.1 hPa | 0 mm | - | 106 W/m² | - |
| 1787643689 | 18.33° C | 68% | 1009 hPa | 0 mm | - | 106 W/m² | - |
| 1787643316 | 17.78° C | 71% | 1009 hPa | 0 mm | - | 106 W/m² | - |
| 1787642716 | 17.78° C | 68% | 1008.7 hPa | 0 mm | - | 80 W/m² | - |
| 1787641889 | 17.22° C | 72% | 1008.9 hPa | 0 mm | - | 60 W/m² | - |
| 1787641515 | 16.67° C | 74% | 1009 hPa | 0 mm | - | 53 W/m² | - |
| 1787640915 | 16.67° C | 72% | 1008.7 hPa | 0 mm | - | 60 W/m² | - |
| 1787640089 | 16.11° C | 74% | 1008.8 hPa | 0 mm | - | 53 W/m² | - |
* Rain latest hour (hover to see other rain measurements)
** Current wind speed in m/s (hover to see current wind gust speed)